sensor_id;sensor_type;location;lat;lon;timestamp;pressure;altitude;pressure_sealevel;temperature;humidity
55066;BME280;40964;42.114;24.220;2023-06-04T00:01:57;97944.91;;;18.92;87.66
55066;BME280;40964;42.114;24.220;2023-06-04T00:04:26;97941.44;;;18.96;87.47
55066;BME280;40964;42.114;24.220;2023-06-04T00:06:51;97939.53;;;18.87;88.31
55066;BME280;40964;42.114;24.220;2023-06-04T00:09:16;97942.22;;;18.82;89.16
55066;BME280;40964;42.114;24.220;2023-06-04T00:11:42;97941.16;;;18.73;90.00
55066;BME280;40964;42.114;24.220;2023-06-04T00:14:07;97940.84;;;18.54;91.00
55066;BME280;40964;42.114;24.220;2023-06-04T00:16:33;97940.81;;;18.43;91.28
55066;BME280;40964;42.114;24.220;2023-06-04T00:19:01;97942.13;;;18.41;91.54
55066;BME280;40964;42.114;24.220;2023-06-04T00:21:27;97943.72;;;18.37;91.57
55066;BME280;40964;42.114;24.220;2023-06-04T00:23:52;97944.53;;;18.48;91.94
55066;BME280;40964;42.114;24.220;2023-06-04T00:26:18;97940.31;;;18.52;91.10
55066;BME280;40964;42.114;24.220;2023-06-04T00:28:43;97947.22;;;18.48;91.36
55066;BME280;40964;42.114;24.220;2023-06-04T00:31:09;97940.03;;;18.43;91.87
55066;BME280;40964;42.114;24.220;2023-06-04T00:33:35;97939.47;;;18.41;92.16
55066;BME280;40964;42.114;24.220;2023-06-04T00:36:01;97949.84;;;18.37;92.52
55066;BME280;40964;42.114;24.220;2023-06-04T00:38:27;97941.59;;;18.34;93.35
55066;BME280;40964;42.114;24.220;2023-06-04T00:40:52;97943.16;;;18.20;94.88
55066;BME280;40964;42.114;24.220;2023-06-04T00:43:18;97947.66;;;18.19;95.59
55066;BME280;40964;42.114;24.220;2023-06-04T00:45:44;97947.44;;;18.26;95.53
55066;BME280;40964;42.114;24.220;2023-06-04T00:48:10;97939.72;;;18.24;95.33
55066;BME280;40964;42.114;24.220;2023-06-04T00:50:36;97945.31;;;18.28;94.73
55066;BME280;40964;42.114;24.220;2023-06-04T00:53:04;97946.38;;;18.32;93.88
55066;BME280;40964;42.114;24.220;2023-06-04T00:55:30;97933.59;;;18.29;93.66
55066;BME280;40964;42.114;24.220;2023-06-04T00:57:57;97946.66;;;18.40;92.95
55066;BME280;40964;42.114;24.220;2023-06-04T01:00:22;97946.13;;;18.38;93.22
55066;BME280;40964;42.114;24.220;2023-06-04T01:02:50;97942.09;;;18.31;93.10
55066;BME280;40964;42.114;24.220;2023-06-04T01:05:28;97942.88;;;18.21;94.45
55066;BME280;40964;42.114;24.220;2023-06-04T01:07:55;97938.06;;;18.08;95.93
55066;BME280;40964;42.114;24.220;2023-06-04T01:10:22;97943.38;;;18.08;96.01
55066;BME280;40964;42.114;24.220;2023-06-04T01:12:47;97937.22;;;18.02;96.08
55066;BME280;40964;42.114;24.220;2023-06-04T01:15:13;97951.03;;;17.89;97.33
55066;BME280;40964;42.114;24.220;2023-06-04T01:17:41;97944.13;;;17.93;97.50
55066;BME280;40964;42.114;24.220;2023-06-04T01:20:25;97951.03;;;17.94;97.59
55066;BME280;40964;42.114;24.220;2023-06-04T01:25:37;97939.59;;;17.94;96.71
55066;BME280;40964;42.114;24.220;2023-06-04T01:28:11;97939.53;;;17.83;95.60
55066;BME280;40964;42.114;24.220;2023-06-04T01:30:39;97948.28;;;17.79;96.73
55066;BME280;40964;42.114;24.220;2023-06-04T01:33:09;97942.97;;;17.79;96.40
55066;BME280;40964;42.114;24.220;2023-06-04T01:35:36;97954.59;;;17.63;98.11
55066;BME280;40964;42.114;24.220;2023-06-04T01:38:05;97958.03;;;17.63;97.17
55066;BME280;40964;42.114;24.220;2023-06-04T01:40:31;97959.88;;;17.57;99.25
55066;BME280;40964;42.114;24.220;2023-06-04T01:42:57;97956.69;;;17.60;99.80
55066;BME280;40964;42.114;24.220;2023-06-04T01:45:24;97954.34;;;17.69;98.40
55066;BME280;40964;42.114;24.220;2023-06-04T01:47:51;97962.03;;;17.66;98.24
55066;BME280;40964;42.114;24.220;2023-06-04T01:50:16;97966.56;;;17.65;97.79
55066;BME280;40964;42.114;24.220;2023-06-04T01:52:42;97950.81;;;17.58;97.71
55066;BME280;40964;42.114;24.220;2023-06-04T01:55:09;97960.66;;;17.53;98.50
55066;BME280;40964;42.114;24.220;2023-06-04T01:57:37;97950.97;;;17.42;97.76
55066;BME280;40964;42.114;24.220;2023-06-04T02:00:04;97969.63;;;17.47;97.64
55066;BME280;40964;42.114;24.220;2023-06-04T02:02:33;97968.53;;;17.38;96.25
55066;BME280;40964;42.114;24.220;2023-06-04T02:04:58;97971.94;;;17.33;96.64
55066;BME280;40964;42.114;24.220;2023-06-04T02:07:24;97972.81;;;17.44;95.93
55066;BME280;40964;42.114;24.220;2023-06-04T02:09:51;97968.78;;;17.41;94.55
55066;BME280;40964;42.114;24.220;2023-06-04T02:12:17;97978.97;;;17.49;95.42
55066;BME280;40964;42.114;24.220;2023-06-04T02:14:43;97981.34;;;17.46;95.40
55066;BME280;40964;42.114;24.220;2023-06-04T02:17:11;97988.00;;;17.48;95.08
55066;BME280;40964;42.114;24.220;2023-06-04T02:19:42;97987.19;;;17.48;94.72
55066;BME280;40964;42.114;24.220;2023-06-04T02:22:13;97986.97;;;17.54;94.56
55066;BME280;40964;42.114;24.220;2023-06-04T02:24:39;97985.38;;;17.53;95.46
55066;BME280;40964;42.114;24.220;2023-06-04T02:27:10;98002.69;;;17.56;96.76
55066;BME280;40964;42.114;24.220;2023-06-04T02:29:36;97996.50;;;17.45;97.17
55066;BME280;40964;42.114;24.220;2023-06-04T02:32:03;98003.03;;;17.33;94.00
55066;BME280;40964;42.114;24.220;2023-06-04T02:34:28;98006.38;;;17.18;92.54
55066;BME280;40964;42.114;24.220;2023-06-04T02:36:54;98001.03;;;17.13;92.35
55066;BME280;40964;42.114;24.220;2023-06-04T02:39:20;97995.09;;;17.06;92.63
55066;BME280;40964;42.114;24.220;2023-06-04T02:41:45;97995.63;;;17.02;92.78
55066;BME280;40964;42.114;24.220;2023-06-04T02:44:11;97997.75;;;17.06;92.81
55066;BME280;40964;42.114;24.220;2023-06-04T02:46:37;97994.03;;;17.01;91.65
55066;BME280;40964;42.114;24.220;2023-06-04T02:49:03;97995.34;;;16.99;92.94
55066;BME280;40964;42.114;24.220;2023-06-04T02:51:28;97998.81;;;17.05;92.62
55066;BME280;40964;42.114;24.220;2023-06-04T02:53:54;98000.72;;;17.09;92.53
55066;BME280;40964;42.114;24.220;2023-06-04T02:56:20;98004.44;;;17.08;91.48
55066;BME280;40964;42.114;24.220;2023-06-04T02:58:52;98007.09;;;17.08;91.26
55066;BME280;40964;42.114;24.220;2023-06-04T03:01:22;98007.84;;;17.03;91.06
55066;BME280;40964;42.114;24.220;2023-06-04T03:03:48;98005.41;;;16.97;91.76
55066;BME280;40964;42.114;24.220;2023-06-04T03:06:15;98008.09;;;17.02;91.31
55066;BME280;40964;42.114;24.220;2023-06-04T03:08:41;98008.91;;;17.02;91.68
55066;BME280;40964;42.114;24.220;2023-06-04T03:11:07;98010.47;;;16.98;91.72
55066;BME280;40964;42.114;24.220;2023-06-04T03:13:33;98017.69;;;17.03;92.34
55066;BME280;40964;42.114;24.220;2023-06-04T03:15:58;98020.94;;;17.10;91.99
55066;BME280;40964;42.114;24.220;2023-06-04T03:18:29;98013.78;;;17.16;91.68
55066;BME280;40964;42.114;24.220;2023-06-04T03:20:55;98013.00;;;17.15;90.83
55066;BME280;40964;42.114;24.220;2023-06-04T03:23:21;98028.41;;;17.13;89.42
55066;BME280;40964;42.114;24.220;2023-06-04T03:25:47;98024.19;;;17.17;88.37
55066;BME280;40964;42.114;24.220;2023-06-04T03:28:12;98031.09;;;17.18;88.97
55066;BME280;40964;42.114;24.220;2023-06-04T03:30:38;98027.69;;;17.23;90.32
55066;BME280;40964;42.114;24.220;2023-06-04T03:33:04;98039.16;;;17.28;89.93
55066;BME280;40964;42.114;24.220;2023-06-04T03:35:29;98038.38;;;17.28;89.13
55066;BME280;40964;42.114;24.220;2023-06-04T03:37:55;98040.75;;;17.29;87.54
55066;BME280;40964;42.114;24.220;2023-06-04T03:40:20;98041.31;;;17.31;86.23
55066;BME280;40964;42.114;24.220;2023-06-04T03:42:45;98046.63;;;17.31;88.09
55066;BME280;40964;42.114;24.220;2023-06-04T03:45:11;98046.63;;;17.31;87.83
55066;BME280;40964;42.114;24.220;2023-06-04T03:47:38;98053.72;;;17.21;88.90
55066;BME280;40964;42.114;24.220;2023-06-04T03:50:04;98057.22;;;17.26;88.00
55066;BME280;40964;42.114;24.220;2023-06-04T03:52:30;98056.72;;;17.29;86.47
55066;BME280;40964;42.114;24.220;2023-06-04T03:54:55;98054.00;;;17.24;85.73
55066;BME280;40964;42.114;24.220;2023-06-04T03:57:21;98064.75;;;17.35;86.62
55066;BME280;40964;42.114;24.220;2023-06-04T03:59:46;98065.22;;;17.31;85.48
55066;BME280;40964;42.114;24.220;2023-06-04T04:02:12;98069.22;;;17.34;85.37
55066;BME280;40964;42.114;24.220;2023-06-04T04:04:37;98059.44;;;17.35;85.49
55066;BME280;40964;42.114;24.220;2023-06-04T04:07:03;98066.13;;;17.42;83.86
55066;BME280;40964;42.114;24.220;2023-06-04T04:09:28;98069.09;;;17.46;83.35
55066;BME280;40964;42.114;24.220;2023-06-04T04:11:54;98070.69;;;17.47;83.97
55066;BME280;40964;42.114;24.220;2023-06-04T04:14:19;98068.91;;;17.57;84.95
55066;BME280;40964;42.114;24.220;2023-06-04T04:16:45;98075.03;;;17.58;84.23
55066;BME280;40964;42.114;24.220;2023-06-04T04:19:10;98073.41;;;17.57;83.12
55066;BME280;40964;42.114;24.220;2023-06-04T04:21:37;98072.38;;;17.58;83.46
55066;BME280;40964;42.114;24.220;2023-06-04T04:24:03;98083.84;;;17.64;82.72
55066;BME280;40964;42.114;24.220;2023-06-04T04:26:29;98083.59;;;17.65;82.13
55066;BME280;40964;42.114;24.220;2023-06-04T04:28:55;98072.50;;;17.73;82.99
55066;BME280;40964;42.114;24.220;2023-06-04T04:31:28;98076.94;;;17.68;82.33
55066;BME280;40964;42.114;24.220;2023-06-04T04:33:56;98077.28;;;17.71;82.79
55066;BME280;40964;42.114;24.220;2023-06-04T04:36:21;98075.19;;;17.78;81.44
55066;BME280;40964;42.114;24.220;2023-06-04T04:38:48;98082.69;;;17.86;81.48
55066;BME280;40964;42.114;24.220;2023-06-04T04:41:22;98085.09;;;17.83;80.93
55066;BME280;40964;42.114;24.220;2023-06-04T04:43:52;98086.72;;;17.89;81.42
55066;BME280;40964;42.114;24.220;2023-06-04T04:46:18;98090.00;;;18.01;83.01
55066;BME280;40964;42.114;24.220;2023-06-04T04:48:43;98094.03;;;18.09;82.23
55066;BME280;40964;42.114;24.220;2023-06-04T04:51:09;98075.09;;;18.05;81.24
55066;BME280;40964;42.114;24.220;2023-06-04T04:53:35;98087.22;;;18.28;80.97
55066;BME280;40964;42.114;24.220;2023-06-04T04:56:00;98084.91;;;18.47;78.00
55066;BME280;40964;42.114;24.220;2023-06-04T04:58:25;98095.94;;;18.66;77.56
55066;BME280;40964;42.114;24.220;2023-06-04T05:00:51;98095.97;;;18.71;76.26
55066;BME280;40964;42.114;24.220;2023-06-04T05:03:16;98107.69;;;18.70;76.40
55066;BME280;40964;42.114;24.220;2023-06-04T05:05:42;98106.91;;;18.85;76.04
55066;BME280;40964;42.114;24.220;2023-06-04T05:08:08;98099.50;;;18.97;74.72
55066;BME280;40964;42.114;24.220;2023-06-04T05:10:34;98099.78;;;19.06;74.08
55066;BME280;40964;42.114;24.220;2023-06-04T05:13:01;98107.78;;;19.11;73.92
55066;BME280;40964;42.114;24.220;2023-06-04T05:15:27;98091.78;;;19.21;73.78
55066;BME280;40964;42.114;24.220;2023-06-04T05:17:53;98105.41;;;19.40;74.93
55066;BME280;40964;42.114;24.220;2023-06-04T05:20:21;98107.06;;;19.51;74.81
55066;BME280;40964;42.114;24.220;2023-06-04T05:22:48;98112.63;;;19.39;73.89
55066;BME280;40964;42.114;24.220;2023-06-04T05:25:14;98113.16;;;19.46;73.29
55066;BME280;40964;42.114;24.220;2023-06-04T05:27:39;98119.56;;;19.55;73.87
55066;BME280;40964;42.114;24.220;2023-06-04T05:30:06;98111.88;;;19.64;73.46
55066;BME280;40964;42.114;24.220;2023-06-04T05:32:32;98104.69;;;19.60;73.10
55066;BME280;40964;42.114;24.220;2023-06-04T05:34:58;98114.56;;;19.59;74.49
55066;BME280;40964;42.114;24.220;2023-06-04T05:37:25;98125.75;;;19.71;73.40
55066;BME280;40964;42.114;24.220;2023-06-04T05:39:56;98111.31;;;19.52;73.78
55066;BME280;40964;42.114;24.220;2023-06-04T05:42:22;98133.19;;;19.54;74.86
55066;BME280;40964;42.114;24.220;2023-06-04T05:44:49;98128.13;;;19.52;75.01
55066;BME280;40964;42.114;24.220;2023-06-04T05:47:16;98141.47;;;19.58;74.14
55066;BME280;40964;42.114;24.220;2023-06-04T05:49:44;98134.53;;;19.51;74.30
55066;BME280;40964;42.114;24.220;2023-06-04T05:52:10;98143.91;;;19.64;74.74
55066;BME280;40964;42.114;24.220;2023-06-04T05:54:35;98138.81;;;19.73;74.11
55066;BME280;40964;42.114;24.220;2023-06-04T05:57:03;98147.09;;;19.66;72.89
55066;BME280;40964;42.114;24.220;2023-06-04T05:59:29;98140.97;;;19.71;73.12
55066;BME280;40964;42.114;24.220;2023-06-04T06:01:55;98148.44;;;19.99;73.23
55066;BME280;40964;42.114;24.220;2023-06-04T06:04:20;98153.47;;;20.21;72.87
55066;BME280;40964;42.114;24.220;2023-06-04T06:06:46;98147.03;;;20.37;70.84
55066;BME280;40964;42.114;24.220;2023-06-04T06:09:14;98153.72;;;20.45;70.14
55066;BME280;40964;42.114;24.220;2023-06-04T06:11:40;98160.94;;;20.50;68.51
55066;BME280;40964;42.114;24.220;2023-06-04T06:14:06;98160.38;;;20.48;67.81
55066;BME280;40964;42.114;24.220;2023-06-04T06:16:31;98157.72;;;20.48;67.48
55066;BME280;40964;42.114;24.220;2023-06-04T06:18:58;98163.56;;;20.60;67.51
55066;BME280;40964;42.114;24.220;2023-06-04T06:21:23;98166.22;;;20.70;66.86
55066;BME280;40964;42.114;24.220;2023-06-04T06:23:49;98163.78;;;20.79;67.53
55066;BME280;40964;42.114;24.220;2023-06-04T06:26:14;98167.41;;;21.03;65.24
55066;BME280;40964;42.114;24.220;2023-06-04T06:28:41;98169.81;;;21.05;63.42
55066;BME280;40964;42.114;24.220;2023-06-04T06:31:06;98167.75;;;20.81;66.87
55066;BME280;40964;42.114;24.220;2023-06-04T06:33:32;98171.00;;;20.73;66.03
55066;BME280;40964;42.114;24.220;2023-06-04T06:35:57;98164.47;;;21.00;66.73
55066;BME280;40964;42.114;24.220;2023-06-04T06:38:26;98170.56;;;21.10;65.16
55066;BME280;40964;42.114;24.220;2023-06-04T06:40:52;98168.44;;;21.12;66.52
55066;BME280;40964;42.114;24.220;2023-06-04T06:43:18;98170.78;;;21.19;64.87
55066;BME280;40964;42.114;24.220;2023-06-04T06:45:44;98166.53;;;21.18;65.10
55066;BME280;40964;42.114;24.220;2023-06-04T06:48:10;98179.34;;;21.31;65.70
55066;BME280;40964;42.114;24.220;2023-06-04T06:50:36;98174.44;;;21.48;63.35
55066;BME280;40964;42.114;24.220;2023-06-04T06:53:02;98174.66;;;21.52;64.41
55066;BME280;40964;42.114;24.220;2023-06-04T06:55:28;98171.78;;;21.43;66.52
55066;BME280;40964;42.114;24.220;2023-06-04T06:57:53;98176.03;;;21.44;65.71
55066;BME280;40964;42.114;24.220;2023-06-04T07:00:19;98180.88;;;21.42;65.04
55066;BME280;40964;42.114;24.220;2023-06-04T07:02:44;98173.19;;;21.31;65.04
55066;BME280;40964;42.114;24.220;2023-06-04T07:05:11;98182.75;;;21.42;65.95
55066;BME280;40964;42.114;24.220;2023-06-04T07:07:36;98194.31;;;21.32;65.45
55066;BME280;40964;42.114;24.220;2023-06-04T07:10:02;98166.06;;;21.01;66.02
55066;BME280;40964;42.114;24.220;2023-06-04T07:12:29;98188.31;;;20.91;68.33
55066;BME280;40964;42.114;24.220;2023-06-04T07:14:55;98186.59;;;21.15;66.50
55066;BME280;40964;42.114;24.220;2023-06-04T07:17:21;98201.56;;;21.27;66.24
55066;BME280;40964;42.114;24.220;2023-06-04T07:19:47;98188.81;;;21.03;67.23
55066;BME280;40964;42.114;24.220;2023-06-04T07:22:12;98201.34;;;21.13;68.00
55066;BME280;40964;42.114;24.220;2023-06-04T07:24:41;98204.22;;;21.32;68.20
55066;BME280;40964;42.114;24.220;2023-06-04T07:27:14;98203.97;;;21.23;66.50
55066;BME280;40964;42.114;24.220;2023-06-04T07:29:39;98206.41;;;21.14;67.58
55066;BME280;40964;42.114;24.220;2023-06-04T07:32:05;98209.84;;;21.30;68.61
55066;BME280;40964;42.114;24.220;2023-06-04T07:34:32;98212.47;;;21.40;68.45
55066;BME280;40964;42.114;24.220;2023-06-04T07:36:57;98208.16;;;21.44;68.13
55066;BME280;40964;42.114;24.220;2023-06-04T07:39:23;98211.75;;;21.69;66.40
55066;BME280;40964;42.114;24.220;2023-06-04T07:41:48;98208.50;;;21.77;65.97
55066;BME280;40964;42.114;24.220;2023-06-04T07:44:14;98195.91;;;21.77;64.52
55066;BME280;40964;42.114;24.220;2023-06-04T07:46:39;98222.97;;;21.71;64.52
55066;BME280;40964;42.114;24.220;2023-06-04T07:49:05;98219.72;;;21.79;66.10
55066;BME280;40964;42.114;24.220;2023-06-04T07:51:31;98219.47;;;21.75;66.67
55066;BME280;40964;42.114;24.220;2023-06-04T07:53:56;98219.91;;;21.93;65.33
55066;BME280;40964;42.114;24.220;2023-06-04T07:56:22;98223.97;;;21.85;64.00
55066;BME280;40964;42.114;24.220;2023-06-04T07:58:47;98234.03;;;21.59;64.93
55066;BME280;40964;42.114;24.220;2023-06-04T08:01:13;98239.03;;;21.71;66.84
55066;BME280;40964;42.114;24.220;2023-06-04T08:03:38;98237.31;;;21.90;64.44
55066;BME280;40964;42.114;24.220;2023-06-04T08:06:05;98238.66;;;21.88;64.54
55066;BME280;40964;42.114;24.220;2023-06-04T08:08:31;98239.50;;;21.83;65.06
55066;BME280;40964;42.114;24.220;2023-06-04T08:10:59;98237.88;;;21.87;64.90
55066;BME280;40964;42.114;24.220;2023-06-04T08:13:25;98244.81;;;21.93;64.94
55066;BME280;40964;42.114;24.220;2023-06-04T08:15:50;98240.34;;;21.78;64.02
55066;BME280;40964;42.114;24.220;2023-06-04T08:18:16;98234.91;;;21.44;64.92
55066;BME280;40964;42.114;24.220;2023-06-04T08:20:41;98248.00;;;21.46;66.55
55066;BME280;40964;42.114;24.220;2023-06-04T08:23:07;98242.06;;;21.59;66.85
55066;BME280;40964;42.114;24.220;2023-06-04T08:25:32;98249.94;;;21.85;66.37
55066;BME280;40964;42.114;24.220;2023-06-04T08:27:58;98252.44;;;21.71;66.77
55066;BME280;40964;42.114;24.220;2023-06-04T08:30:24;98255.09;;;21.71;65.70
55066;BME280;40964;42.114;24.220;2023-06-04T08:32:50;98250.47;;;21.81;66.20
55066;BME280;40964;42.114;24.220;2023-06-04T08:35:16;98251.97;;;22.03;65.69
55066;BME280;40964;42.114;24.220;2023-06-04T08:37:41;98254.16;;;21.91;65.25
55066;BME280;40964;42.114;24.220;2023-06-04T08:40:07;98253.06;;;21.97;64.88
55066;BME280;40964;42.114;24.220;2023-06-04T08:42:41;98243.00;;;22.18;64.28
55066;BME280;40964;42.114;24.220;2023-06-04T08:45:10;98247.84;;;22.21;63.60
55066;BME280;40964;42.114;24.220;2023-06-04T08:47:49;98247.28;;;22.19;64.52
55066;BME280;40964;42.114;24.220;2023-06-04T08:50:20;98244.78;;;22.32;67.35
55066;BME280;40964;42.114;24.220;2023-06-04T08:52:47;98248.63;;;22.50;63.70
55066;BME280;40964;42.114;24.220;2023-06-04T08:55:14;98252.53;;;22.63;63.17
55066;BME280;40964;42.114;24.220;2023-06-04T08:57:40;98241.09;;;22.52;62.71
55066;BME280;40964;42.114;24.220;2023-06-04T09:00:07;98257.28;;;22.42;63.61
55066;BME280;40964;42.114;24.220;2023-06-04T09:02:36;98260.63;;;22.29;64.37
55066;BME280;40964;42.114;24.220;2023-06-04T09:05:05;98258.47;;;22.31;65.22
55066;BME280;40964;42.114;24.220;2023-06-04T09:07:39;98259.72;;;22.04;65.31
55066;BME280;40964;42.114;24.220;2023-06-04T09:10:08;98254.03;;;21.72;66.10
55066;BME280;40964;42.114;24.220;2023-06-04T09:12:36;98260.31;;;21.91;66.71
55066;BME280;40964;42.114;24.220;2023-06-04T09:15:02;98264.28;;;21.99;65.95
55066;BME280;40964;42.114;24.220;2023-06-04T09:17:28;98262.38;;;22.09;65.28
55066;BME280;40964;42.114;24.220;2023-06-04T09:19:54;98264.66;;;22.26;65.91
55066;BME280;40964;42.114;24.220;2023-06-04T09:22:31;98264.50;;;22.47;63.85
55066;BME280;40964;42.114;24.220;2023-06-04T09:24:56;98258.44;;;22.65;64.90
55066;BME280;40964;42.114;24.220;2023-06-04T09:27:22;98253.78;;;22.47;64.80
55066;BME280;40964;42.114;24.220;2023-06-04T09:29:57;98261.75;;;22.23;64.33
55066;BME280;40964;42.114;24.220;2023-06-04T09:32:24;98266.50;;;22.31;64.40
55066;BME280;40964;42.114;24.220;2023-06-04T09:34:50;98264.63;;;22.31;65.43
55066;BME280;40964;42.114;24.220;2023-06-04T09:37:18;98274.63;;;22.21;64.80
55066;BME280;40964;42.114;24.220;2023-06-04T09:39:52;98270.97;;;22.41;64.56
55066;BME280;40964;42.114;24.220;2023-06-04T09:42:18;98270.22;;;22.35;64.56
55066;BME280;40964;42.114;24.220;2023-06-04T09:44:44;98274.03;;;22.29;64.87
55066;BME280;40964;42.114;24.220;2023-06-04T09:47:11;98263.53;;;22.32;65.46
55066;BME280;40964;42.114;24.220;2023-06-04T09:49:44;98255.44;;;22.37;64.60
55066;BME280;40964;42.114;24.220;2023-06-04T09:52:10;98258.41;;;22.36;65.43
55066;BME280;40964;42.114;24.220;2023-06-04T09:54:36;98260.06;;;22.32;64.76
55066;BME280;40964;42.114;24.220;2023-06-04T09:57:04;98260.00;;;22.37;65.12
55066;BME280;40964;42.114;24.220;2023-06-04T09:59:36;98264.53;;;22.42;65.32
55066;BME280;40964;42.114;24.220;2023-06-04T10:02:06;98269.91;;;22.36;65.65
55066;BME280;40964;42.114;24.220;2023-06-04T10:04:35;98261.81;;;22.47;66.96
55066;BME280;40964;42.114;24.220;2023-06-04T10:07:04;98264.41;;;22.57;64.83
55066;BME280;40964;42.114;24.220;2023-06-04T10:09:32;98257.56;;;22.70;65.63
55066;BME280;40964;42.114;24.220;2023-06-04T10:11:59;98257.78;;;22.73;63.59
55066;BME280;40964;42.114;24.220;2023-06-04T10:14:29;98260.84;;;22.90;63.54
55066;BME280;40964;42.114;24.220;2023-06-04T10:16:57;98255.44;;;22.96;62.19
55066;BME280;40964;42.114;24.220;2023-06-04T10:19:24;98253.38;;;23.11;63.02
55066;BME280;40964;42.114;24.220;2023-06-04T10:21:50;98254.22;;;23.31;61.80
55066;BME280;40964;42.114;24.220;2023-06-04T10:24:15;98240.63;;;23.22;60.36
55066;BME280;40964;42.114;24.220;2023-06-04T10:26:42;98252.50;;;23.40;61.63
55066;BME280;40964;42.114;24.220;2023-06-04T10:29:08;98236.88;;;23.42;60.12
55066;BME280;40964;42.114;24.220;2023-06-04T10:31:34;98242.72;;;23.49;60.67
55066;BME280;40964;42.114;24.220;2023-06-04T10:34:00;98234.53;;;23.59;60.49
55066;BME280;40964;42.114;24.220;2023-06-04T10:36:25;98235.59;;;23.58;61.65
55066;BME280;40964;42.114;24.220;2023-06-04T10:38:55;98243.53;;;23.68;60.55
55066;BME280;40964;42.114;24.220;2023-06-04T10:41:21;98235.53;;;23.63;60.63
55066;BME280;40964;42.114;24.220;2023-06-04T10:43:59;98241.28;;;23.75;60.29
55066;BME280;40964;42.114;24.220;2023-06-04T10:46:25;98237.56;;;23.71;60.16
55066;BME280;40964;42.114;24.220;2023-06-04T10:48:52;98232.56;;;24.02;58.59
55066;BME280;40964;42.114;24.220;2023-06-04T10:51:34;98233.69;;;24.15;59.67
55066;BME280;40964;42.114;24.220;2023-06-04T10:54:01;98228.13;;;24.25;57.97
55066;BME280;40964;42.114;24.220;2023-06-04T10:56:31;98231.22;;;24.19;58.62
55066;BME280;40964;42.114;24.220;2023-06-04T10:59:14;98219.06;;;24.21;57.82
55066;BME280;40964;42.114;24.220;2023-06-04T11:01:40;98227.34;;;24.25;56.96
55066;BME280;40964;42.114;24.220;2023-06-04T11:04:06;98221.81;;;24.35;57.69
55066;BME280;40964;42.114;24.220;2023-06-04T11:06:31;98216.59;;;24.57;56.74
55066;BME280;40964;42.114;24.220;2023-06-04T11:09:05;98229.47;;;25.15;60.22
55066;BME280;40964;42.114;24.220;2023-06-04T11:11:31;98228.97;;;25.13;55.05
55066;BME280;40964;42.114;24.220;2023-06-04T11:14:10;98228.28;;;25.35;57.13
55066;BME280;40964;42.114;24.220;2023-06-04T11:16:38;98228.84;;;25.32;54.87
55066;BME280;40964;42.114;24.220;2023-06-04T11:19:03;98231.16;;;25.39;54.02
55066;BME280;40964;42.114;24.220;2023-06-04T11:21:29;98230.69;;;25.59;54.39
55066;BME280;40964;42.114;24.220;2023-06-04T11:23:58;98230.91;;;25.63;54.20
55066;BME280;40964;42.114;24.220;2023-06-04T11:26:37;98229.47;;;26.01;52.31
55066;BME280;40964;42.114;24.220;2023-06-04T11:29:06;98229.72;;;26.67;52.99
55066;BME280;40964;42.114;24.220;2023-06-04T11:31:46;98222.28;;;27.04;52.77
55066;BME280;40964;42.114;24.220;2023-06-04T11:34:42;98224.44;;;27.33;51.38
55066;BME280;40964;42.114;24.220;2023-06-04T11:37:08;98214.69;;;27.06;50.62
55066;BME280;40964;42.114;24.220;2023-06-04T11:39:35;98218.22;;;26.84;49.13
55066;BME280;40964;42.114;24.220;2023-06-04T11:42:04;98213.81;;;26.88;49.72
55066;BME280;40964;42.114;24.220;2023-06-04T11:44:30;98220.78;;;26.89;49.79
55066;BME280;40964;42.114;24.220;2023-06-04T11:46:56;98207.91;;;26.86;48.41
55066;BME280;40964;42.114;24.220;2023-06-04T11:49:22;98218.53;;;26.82;48.41
55066;BME280;40964;42.114;24.220;2023-06-04T11:51:48;98215.56;;;26.53;49.09
55066;BME280;40964;42.114;24.220;2023-06-04T11:54:15;98212.94;;;26.39;49.91
55066;BME280;40964;42.114;24.220;2023-06-04T11:56:42;98218.22;;;26.44;50.14
55066;BME280;40964;42.114;24.220;2023-06-04T11:59:13;98214.03;;;26.38;50.45
55066;BME280;40964;42.114;24.220;2023-06-04T12:01:43;98214.53;;;26.40;49.70
55066;BME280;40964;42.114;24.220;2023-06-04T12:04:15;98211.59;;;26.28;50.22
55066;BME280;40964;42.114;24.220;2023-06-04T12:06:55;98220.59;;;26.23;50.63
55066;BME280;40964;42.114;24.220;2023-06-04T12:09:29;98224.84;;;26.16;52.31
55066;BME280;40964;42.114;24.220;2023-06-04T12:12:07;98226.31;;;25.99;52.14
55066;BME280;40964;42.114;24.220;2023-06-04T12:14:33;98224.31;;;26.14;51.86
55066;BME280;40964;42.114;24.220;2023-06-04T12:17:00;98223.78;;;26.48;51.73
55066;BME280;40964;42.114;24.220;2023-06-04T12:19:27;98220.56;;;26.77;49.46
55066;BME280;40964;42.114;24.220;2023-06-04T12:22:04;98225.88;;;26.91;49.70
55066;BME280;40964;42.114;24.220;2023-06-04T12:24:31;98226.91;;;27.12;49.98
55066;BME280;40964;42.114;24.220;2023-06-04T12:27:05;98220.28;;;27.35;46.22
55066;BME280;40964;42.114;24.220;2023-06-04T12:29:32;98227.94;;;27.42;44.55
55066;BME280;40964;42.114;24.220;2023-06-04T12:32:08;98227.53;;;27.09;44.63
55066;BME280;40964;42.114;24.220;2023-06-04T12:34:37;98223.72;;;27.10;47.73
55066;BME280;40964;42.114;24.220;2023-06-04T12:37:02;98215.56;;;27.01;44.91
55066;BME280;40964;42.114;24.220;2023-06-04T12:39:29;98205.22;;;26.95;46.83
55066;BME280;40964;42.114;24.220;2023-06-04T12:41:55;98229.22;;;26.96;46.34
55066;BME280;40964;42.114;24.220;2023-06-04T12:44:20;98228.50;;;26.73;47.90
55066;BME280;40964;42.114;24.220;2023-06-04T12:46:46;98230.22;;;26.38;47.08
55066;BME280;40964;42.114;24.220;2023-06-04T12:49:12;98237.19;;;25.94;48.22
55066;BME280;40964;42.114;24.220;2023-06-04T12:51:38;98235.66;;;25.30;49.90
55066;BME280;40964;42.114;24.220;2023-06-04T12:54:04;98222.59;;;24.96;51.22